Time;durP1;ratioP1;P1;durP2;ratioP2;P2;SDS_P1;SDS_P2;PMS_P1;PMS_P2;Temp;Humidity;BMP_temperature;BMP_pressure;BME280_temperature;BME280_humidity;BME280_pressure;Samples;Min_cycle;Max_cycle;Signal;HPM_P1;HPM_P2
2021/06/26 00:00:00;;;;;;;6.70;5.13;;;17.80;99.90;;;;;;5012479;28;20117;-74
2021/06/26 00:02:27;;;;;;;7.95;6.47;;;17.70;99.90;;;;;;5025184;28;20077;-75
2021/06/26 00:04:54;;;;;;;6.43;5.47;;;17.60;99.90;;;;;;5032149;28;20072;-75
2021/06/26 00:07:20;;;;;;;6.97;6.22;;;17.60;99.90;;;;;;5031603;28;20559;-74
2021/06/26 00:09:48;;;;;;;7.00;5.80;;;17.60;99.90;;;;;;5030694;28;20139;-75
2021/06/26 00:12:15;;;;;;;6.75;5.55;;;17.60;99.90;;;;;;5032225;28;20154;-74
2021/06/26 00:14:42;;;;;;;8.32;6.28;;;17.70;99.90;;;;;;5032324;28;20512;-75
2021/06/26 00:17:08;;;;;;;8.00;6.88;;;17.60;99.90;;;;;;5031877;28;20081;-74
2021/06/26 00:19:35;;;;;;;7.18;6.07;;;17.70;99.90;;;;;;5032144;28;20130;-73
2021/06/26 00:22:01;;;;;;;7.50;5.82;;;17.80;99.90;;;;;;5031622;28;20091;-74
2021/06/26 00:24:28;;;;;;;8.18;6.53;;;17.80;99.90;;;;;;5031863;28;20084;-75
2021/06/26 00:26:56;;;;;;;8.18;6.93;;;17.80;99.90;;;;;;5031288;28;20072;-74
2021/06/26 00:29:22;;;;;;;8.05;6.88;;;17.60;99.90;;;;;;5031664;28;20091;-74
2021/06/26 00:31:49;;;;;;;8.57;6.93;;;17.40;99.90;;;;;;5031652;28;20046;-74
2021/06/26 00:34:16;;;;;;;8.07;7.22;;;17.40;99.90;;;;;;5035888;28;20084;-74
2021/06/26 00:36:42;;;;;;;7.13;6.43;;;17.40;99.90;;;;;;5034954;28;20073;-74
2021/06/26 00:39:09;;;;;;;7.60;6.80;;;17.30;99.90;;;;;;5015800;28;20532;-74
2021/06/26 00:41:36;;;;;;;7.65;6.10;;;17.20;99.90;;;;;;5015555;28;20552;-74
2021/06/26 00:44:07;;;;;;;9.75;7.15;;;17.30;99.90;;;;;;5016039;28;20464;-74
2021/06/26 00:46:33;;;;;;;8.07;6.40;;;17.30;99.90;;;;;;5029050;28;20551;-75
2021/06/26 00:49:00;;;;;;;7.43;6.63;;;17.30;99.90;;;;;;5035295;28;20994;-74
2021/06/26 00:51:26;;;;;;;8.27;7.13;;;17.30;99.90;;;;;;5035431;28;20080;-74
2021/06/26 00:53:54;;;;;;;8.23;6.25;;;17.20;99.90;;;;;;5035344;28;20070;-75
2021/06/26 00:56:20;;;;;;;8.00;6.80;;;17.10;99.90;;;;;;5031169;28;20042;-74
2021/06/26 00:58:47;;;;;;;9.15;6.72;;;17.00;99.90;;;;;;5015221;28;20100;-75
2021/06/26 01:01:15;;;;;;;8.57;7.55;;;17.00;99.90;;;;;;5016619;28;20081;-74
2021/06/26 01:03:43;;;;;;;8.60;7.35;;;17.00;99.90;;;;;;5015306;28;20073;-74
2021/06/26 01:06:11;;;;;;;8.00;7.18;;;17.00;99.90;;;;;;5017662;28;20101;-74
2021/06/26 01:08:37;;;;;;;8.15;6.63;;;17.10;99.90;;;;;;5034810;28;20145;-74
2021/06/26 01:11:04;;;;;;;8.27;7.00;;;17.20;99.90;;;;;;5035001;28;20551;-74
2021/06/26 01:13:32;;;;;;;7.68;6.90;;;17.10;99.90;;;;;;5035351;28;20608;-74
2021/06/26 01:15:59;;;;;;;7.85;6.95;;;17.00;99.90;;;;;;5034209;28;20128;-74
2021/06/26 01:18:26;;;;;;;8.40;6.38;;;17.10;99.90;;;;;;5034905;28;20069;-74
2021/06/26 01:20:53;;;;;;;10.75;7.10;;;17.00;99.90;;;;;;5034617;28;20068;-74
2021/06/26 01:23:23;;;;;;;9.52;7.65;;;16.90;99.90;;;;;;5021028;28;20092;-74
2021/06/26 01:25:50;;;;;;;7.25;6.38;;;17.00;99.90;;;;;;5014698;28;20050;-74
2021/06/26 01:28:18;;;;;;;10.80;6.60;;;17.10;99.90;;;;;;5014550;28;20073;-74
2021/06/26 01:30:44;;;;;;;10.15;7.57;;;17.20;99.90;;;;;;5014705;28;20449;-74
2021/06/26 01:33:11;;;;;;;10.57;6.68;;;17.10;99.90;;;;;;5017495;28;20095;-75
2021/06/26 01:35:37;;;;;;;8.70;6.68;;;17.00;99.90;;;;;;5014819;28;20089;-73
2021/06/26 01:38:06;;;;;;;7.80;6.78;;;16.80;99.90;;;;;;5026249;28;20072;-74
2021/06/26 01:40:33;;;;;;;7.03;6.28;;;16.80;99.90;;;;;;5034469;28;20452;-73
2021/06/26 01:43:00;;;;;;;8.30;6.25;;;16.80;99.90;;;;;;5033412;28;20046;-74
2021/06/26 01:45:27;;;;;;;9.75;7.18;;;16.70;99.90;;;;;;5033887;28;20045;-75
2021/06/26 01:47:55;;;;;;;9.35;7.75;;;16.50;99.90;;;;;;5032455;28;20069;-74
2021/06/26 01:50:23;;;;;;;10.25;7.40;;;16.40;99.90;;;;;;5034104;28;20083;-73
2021/06/26 01:52:50;;;;;;;8.98;7.63;;;16.20;99.90;;;;;;5034228;28;20446;-75
2021/06/26 01:55:18;;;;;;;9.13;8.05;;;16.10;99.90;;;;;;5033748;28;20072;-75
2021/06/26 01:57:47;;;;;;;10.63;7.72;;;16.10;99.90;;;;;;5033485;28;20076;-74
2021/06/26 02:00:15;;;;;;;8.63;6.55;;;16.10;99.90;;;;;;5028059;28;20104;-74
2021/06/26 02:02:42;;;;;;;8.95;8.10;;;16.20;99.90;;;;;;5024355;28;20188;-75
2021/06/26 02:05:10;;;;;;;9.07;7.32;;;16.20;99.90;;;;;;5015717;28;20069;-75
2021/06/26 02:07:37;;;;;;;8.68;7.32;;;16.00;99.90;;;;;;5031852;28;20513;-76
2021/06/26 02:10:05;;;;;;;10.02;7.00;;;15.90;99.90;;;;;;5034025;28;20132;-76
2021/06/26 02:12:32;;;;;;;10.85;7.70;;;15.70;99.90;;;;;;5033571;28;20571;-74
2021/06/26 02:15:00;;;;;;;10.82;7.55;;;15.70;99.90;;;;;;5034044;28;20042;-75
2021/06/26 02:17:27;;;;;;;7.85;7.05;;;15.70;99.90;;;;;;5023307;28;20123;-75
2021/06/26 02:19:54;;;;;;;8.27;7.47;;;15.80;99.90;;;;;;5013799;28;20120;-75
2021/06/26 02:22:20;;;;;;;8.70;7.80;;;15.80;99.90;;;;;;5013958;28;20069;-74
2021/06/26 02:24:47;;;;;;;8.85;7.95;;;15.70;99.90;;;;;;5013794;28;20112;-73
2021/06/26 02:27:14;;;;;;;8.85;7.95;;;15.60;99.90;;;;;;5013314;28;20052;-74
2021/06/26 02:29:40;;;;;;;9.10;8.02;;;15.40;99.90;;;;;;5013894;28;20092;-74
2021/06/26 02:32:08;;;;;;;9.23;7.72;;;15.40;99.90;;;;;;5023292;28;20100;-75
2021/06/26 02:34:35;;;;;;;8.60;7.53;;;15.40;99.90;;;;;;5033485;28;20108;-74
2021/06/26 02:37:02;;;;;;;9.95;7.63;;;15.40;99.90;;;;;;5033174;28;20452;-75
2021/06/26 02:39:28;;;;;;;9.77;7.57;;;15.40;99.90;;;;;;5032879;28;20053;-75
2021/06/26 02:41:55;;;;;;;10.60;8.90;;;15.40;99.90;;;;;;5033223;28;20578;-75
2021/06/26 02:44:21;;;;;;;10.23;7.60;;;15.40;99.90;;;;;;5033218;28;20072;-74
2021/06/26 02:46:50;;;;;;;11.02;8.25;;;15.40;99.90;;;;;;5031183;28;20493;-74
2021/06/26 02:49:18;;;;;;;11.32;8.55;;;15.30;99.90;;;;;;5032998;28;20088;-74
2021/06/26 02:51:44;;;;;;;10.85;8.38;;;15.30;99.90;;;;;;5033269;28;20410;-75
2021/06/26 02:54:11;;;;;;;11.43;9.25;;;15.30;99.90;;;;;;5032733;28;20096;-74
2021/06/26 02:56:37;;;;;;;14.40;8.70;;;15.30;99.90;;;;;;5032263;28;20053;-74
2021/06/26 02:59:04;;;;;;;12.57;8.55;;;15.30;99.90;;;;;;5033092;28;20073;-74
2021/06/26 03:01:30;;;;;;;8.85;7.43;;;15.40;99.90;;;;;;5032520;28;20041;-73
2021/06/26 03:03:57;;;;;;;10.75;7.80;;;15.40;99.90;;;;;;5032824;28;20084;-73
2021/06/26 03:06:25;;;;;;;10.27;8.05;;;15.40;99.90;;;;;;5032441;28;20393;-73
2021/06/26 03:08:51;;;;;;;11.23;8.13;;;15.40;99.90;;;;;;5031774;28;20084;-73
2021/06/26 03:11:18;;;;;;;12.00;9.10;;;15.20;99.90;;;;;;5032807;28;20081;-74
2021/06/26 03:13:45;;;;;;;11.45;8.75;;;15.10;99.90;;;;;;5032642;28;20081;-73
2021/06/26 03:16:11;;;;;;;11.93;8.38;;;15.10;99.90;;;;;;5016785;28;20073;-75
2021/06/26 03:18:42;;;;;;;8.63;7.65;;;15.10;99.90;;;;;;5012703;28;20085;-74
2021/06/26 03:21:09;;;;;;;12.15;8.65;;;15.30;99.90;;;;;;5012853;28;20498;-74
2021/06/26 03:23:37;;;;;;;10.07;8.88;;;15.30;99.90;;;;;;5013204;28;20066;-76
2021/06/26 03:26:05;;;;;;;11.30;7.82;;;15.20;99.90;;;;;;5012705;28;20111;-74
2021/06/26 03:28:31;;;;;;;11.55;8.77;;;15.30;99.90;;;;;;5012548;28;20053;-74
2021/06/26 03:30:58;;;;;;;10.48;8.38;;;15.40;99.90;;;;;;5012432;28;20554;-75
2021/06/26 03:33:37;;;;;;;8.82;6.95;;;15.50;99.90;;;;;;5032147;28;20139;-74
2021/06/26 03:36:04;;;;;;;10.48;8.57;;;15.50;99.90;;;;;;5016736;28;20453;-74
2021/06/26 03:38:31;;;;;;;9.02;8.07;;;15.50;99.90;;;;;;5012579;28;20077;-74
2021/06/26 03:40:58;;;;;;;11.40;8.20;;;15.30;99.90;;;;;;5012630;28;20053;-75
2021/06/26 03:43:25;;;;;;;13.23;8.27;;;15.30;99.90;;;;;;5012562;28;20045;-74
2021/06/26 03:45:52;;;;;;;10.23;8.65;;;15.20;99.90;;;;;;5023627;28;20081;-74
2021/06/26 03:48:19;;;;;;;8.90;7.57;;;15.30;99.90;;;;;;5032186;28;20149;-74
2021/06/26 03:50:45;;;;;;;9.30;7.65;;;15.40;99.90;;;;;;5031671;28;20080;-74
2021/06/26 03:53:12;;;;;;;9.30;8.02;;;15.40;99.90;;;;;;5032061;28;20058;-74
2021/06/26 03:55:39;;;;;;;9.00;7.35;;;15.50;99.90;;;;;;5031979;28;20049;-74
2021/06/26 03:58:07;;;;;;;9.95;8.13;;;15.40;99.90;;;;;;5032156;28;20589;-74
2021/06/26 04:00:33;;;;;;;10.07;7.97;;;15.30;99.90;;;;;;5030000;28;20397;-74
2021/06/26 04:03:00;;;;;;;12.10;8.23;;;15.20;99.90;;;;;;5031510;28;20071;-76
2021/06/26 04:05:26;;;;;;;11.98;8.93;;;15.30;99.90;;;;;;5032033;28;20439;-73
2021/06/26 04:07:53;;;;;;;13.02;8.13;;;15.30;99.90;;;;;;5018594;28;20637;-74
2021/06/26 04:10:20;;;;;;;11.07;9.02;;;15.30;99.90;;;;;;5016448;28;20472;-74
2021/06/26 04:12:46;;;;;;;9.15;8.23;;;15.50;99.90;;;;;;5016326;28;20119;-73
2021/06/26 04:15:14;;;;;;;9.02;8.10;;;15.70;99.90;;;;;;5016096;28;20047;-74
2021/06/26 04:17:41;;;;;;;8.60;7.35;;;15.90;99.90;;;;;;5015801;28;20104;-74
2021/06/26 04:20:08;;;;;;;9.18;8.23;;;15.90;99.90;;;;;;5016157;28;20073;-73
2021/06/26 04:22:35;;;;;;;10.60;7.78;;;15.90;99.90;;;;;;5030797;28;20050;-73
2021/06/26 04:25:02;;;;;;;14.15;8.45;;;15.90;99.90;;;;;;5035801;28;20084;-73
2021/06/26 04:27:28;;;;;;;10.80;8.48;;;15.90;99.90;;;;;;5035663;28;20095;-74
2021/06/26 04:29:55;;;;;;;12.82;7.80;;;15.90;99.90;;;;;;5035371;28;20481;-74
2021/06/26 04:32:24;;;;;;;10.32;8.63;;;16.00;99.90;;;;;;5035650;28;20049;-74
2021/06/26 04:34:51;;;;;;;9.63;8.18;;;16.10;99.90;;;;;;5035837;28;20457;-74
2021/06/26 04:37:18;;;;;;;13.80;8.05;;;16.20;99.90;;;;;;5035042;28;20492;-74
2021/06/26 04:39:44;;;;;;;9.30;8.25;;;16.30;99.90;;;;;;5035327;28;20049;-74
2021/06/26 04:42:11;;;;;;;10.90;8.57;;;16.50;99.90;;;;;;5035441;28;20042;-73
2021/06/26 04:44:37;;;;;;;10.82;7.88;;;16.60;99.90;;;;;;5033724;28;20481;-75
2021/06/26 04:47:05;;;;;;;8.75;7.70;;;16.80;99.90;;;;;;5018511;28;20139;-74
2021/06/26 04:49:32;;;;;;;9.43;8.43;;;16.90;99.90;;;;;;5016657;28;20054;-73
2021/06/26 04:51:59;;;;;;;9.25;8.27;;;17.00;99.90;;;;;;5024112;28;20084;-74
2021/06/26 04:54:26;;;;;;;7.88;7.07;;;17.20;99.90;;;;;;5027720;28;20072;-74
2021/06/26 04:56:52;;;;;;;10.07;7.95;;;17.30;99.90;;;;;;5035029;28;20136;-74
2021/06/26 04:59:19;;;;;;;8.85;7.43;;;17.40;99.90;;;;;;5034563;28;20045;-74
2021/06/26 05:01:45;;;;;;;9.27;7.72;;;17.50;99.90;;;;;;5027891;28;20088;-74
2021/06/26 05:04:12;;;;;;;9.32;7.38;;;17.70;99.90;;;;;;5018381;28;20042;-75
2021/06/26 05:06:40;;;;;;;9.45;7.50;;;17.70;99.90;;;;;;5016379;28;20081;-74
2021/06/26 05:09:07;;;;;;;8.48;7.55;;;17.90;99.90;;;;;;5015217;28;20441;-74
2021/06/26 05:11:33;;;;;;;11.75;8.60;;;18.10;99.90;;;;;;5021362;28;20050;-74
2021/06/26 05:14:00;;;;;;;8.55;7.40;;;18.30;99.90;;;;;;5034798;28;20049;-74
2021/06/26 05:16:26;;;;;;;12.07;8.90;;;18.30;99.90;;;;;;5034712;28;20475;-75
2021/06/26 05:18:53;;;;;;;8.63;7.70;;;18.50;99.90;;;;;;5034662;28;20456;-74
2021/06/26 05:21:20;;;;;;;40.47;22.27;;;18.60;99.90;;;;;;5034938;28;20073;-74
2021/06/26 05:23:48;;;;;;;13.25;10.93;;;18.60;99.90;;;;;;5034755;28;20045;-75
2021/06/26 05:26:15;;;;;;;14.15;10.52;;;18.80;99.90;;;;;;5033740;28;20075;-74
2021/06/26 05:28:42;;;;;;;12.02;8.23;;;19.00;99.90;;;;;;5031172;28;20041;-76
2021/06/26 05:31:08;;;;;;;16.13;12.93;;;19.30;99.90;;;;;;5033829;28;20080;-71
2021/06/26 05:33:35;;;;;;;10.80;8.95;;;19.40;99.90;;;;;;5026349;28;20413;-71
2021/06/26 05:36:02;;;;;;;10.98;8.98;;;19.50;99.90;;;;;;5049389;28;20069;-71
2021/06/26 05:38:28;;;;;;;11.48;9.68;;;19.60;99.90;;;;;;5025374;28;20084;-72
2021/06/26 05:40:56;;;;;;;11.50;9.95;;;19.70;99.90;;;;;;5034246;28;20046;-70
2021/06/26 05:43:23;;;;;;;13.80;11.15;;;19.80;99.90;;;;;;5034314;28;20073;-73
2021/06/26 05:45:49;;;;;;;12.00;8.88;;;20.10;99.90;;;;;;5034095;28;20049;-74
2021/06/26 05:48:16;;;;;;;11.50;9.55;;;20.20;99.90;;;;;;5034493;28;20077;-72
2021/06/26 05:50:42;;;;;;;9.02;8.20;;;20.40;99.90;;;;;;5033926;28;20092;-74
2021/06/26 05:53:09;;;;;;;13.60;10.70;;;20.60;99.90;;;;;;5033995;28;20412;-73
2021/06/26 05:55:36;;;;;;;13.70;9.10;;;20.80;99.90;;;;;;5033986;28;20500;-74
2021/06/26 05:58:05;;;;;;;10.93;9.20;;;21.00;99.90;;;;;;5016623;28;20569;-73
2021/06/26 06:00:33;;;;;;;11.43;8.77;;;21.20;99.90;;;;;;5014509;28;20052;-73
2021/06/26 06:03:02;;;;;;;9.80;8.32;;;21.40;99.90;;;;;;5014489;28;20058;-70
2021/06/26 06:05:28;;;;;;;9.63;7.88;;;21.80;99.90;;;;;;5021167;28;20432;-70
2021/06/26 06:08:18;;;;;;;7.25;6.32;;;22.00;99.90;;;;;;5034386;28;20072;-73
2021/06/26 06:10:57;;;;;;;9.63;7.90;;;22.30;99.90;;;;;;5034686;28;20073;-75
2021/06/26 06:13:25;;;;;;;9.65;7.28;;;22.90;99.90;;;;;;5014894;28;20050;-73
2021/06/26 06:15:52;;;;;;;9.55;8.05;;;23.30;99.90;;;;;;5026349;28;20048;-73
2021/06/26 06:18:20;;;;;;;7.22;6.47;;;23.30;99.90;;;;;;5033773;28;20111;-72
2021/06/26 06:20:47;;;;;;;9.02;7.30;;;22.90;99.90;;;;;;5033284;28;20053;-73
2021/06/26 06:23:15;;;;;;;8.82;7.20;;;22.90;99.90;;;;;;5034395;28;20045;-69
2021/06/26 06:25:41;;;;;;;7.93;7.07;;;22.80;99.90;;;;;;5037608;28;20056;-71
2021/06/26 06:28:08;;;;;;;12.88;7.55;;;23.00;99.90;;;;;;5033355;28;20139;-71
2021/06/26 06:30:36;;;;;;;11.93;9.85;;;23.50;99.90;;;;;;5032723;28;20486;-68
2021/06/26 06:33:04;;;;;;;7.80;7.00;;;23.80;99.90;;;;;;5033182;28;20076;-69
2021/06/26 06:35:31;;;;;;;7.07;5.75;;;24.00;99.90;;;;;;5033019;28;20091;-69
2021/06/26 06:37:58;;;;;;;7.50;6.68;;;24.70;99.90;;;;;;5033007;28;20045;-70
2021/06/26 06:40:25;;;;;;;6.53;5.95;;;25.00;97.60;;;;;;5033136;28;20095;-70
2021/06/26 06:42:51;;;;;;;8.68;6.45;;;24.60;97.80;;;;;;5033226;28;20460;-71
2021/06/26 06:45:18;;;;;;;5.68;5.00;;;24.00;98.30;;;;;;5033266;28;20053;-69
2021/06/26 06:47:46;;;;;;;6.82;6.15;;;23.30;99.10;;;;;;5032343;28;20045;-73
2021/06/26 06:50:13;;;;;;;10.18;7.70;;;23.70;99.60;;;;;;5025205;28;20391;-71
2021/06/26 06:52:40;;;;;;;15.00;11.88;;;24.00;99.30;;;;;;5033259;28;20057;-71
2021/06/26 06:55:08;;;;;;;12.95;10.23;;;24.00;98.70;;;;;;5033193;28;20397;-71
2021/06/26 06:57:35;;;;;;;10.18;9.15;;;24.30;99.60;;;;;;5032664;28;20099;-71
2021/06/26 07:00:02;;;;;;;8.50;7.65;;;24.70;99.20;;;;;;5032873;28;20041;-74
2021/06/26 07:02:28;;;;;;;13.65;9.88;;;24.90;95.90;;;;;;5033517;28;20053;-75
2021/06/26 07:04:56;;;;;;;6.13;5.25;;;24.70;94.80;;;;;;5032713;28;20559;-73
2021/06/26 07:07:25;;;;;;;7.97;6.80;;;25.00;96.20;;;;;;5020033;28;20046;-71
2021/06/26 07:09:52;;;;;;;11.68;9.38;;;25.10;96.20;;;;;;5017223;28;20041;-74
2021/06/26 07:12:18;;;;;;;11.80;9.98;;;25.20;95.90;;;;;;5033742;28;20063;-76
2021/06/26 07:14:45;;;;;;;25.35;17.25;;;25.00;93.70;;;;;;5032638;28;20460;-75
2021/06/26 07:17:12;;;;;;;25.60;19.85;;;25.00;93.80;;;;;;5032056;28;20583;-76
2021/06/26 07:19:38;;;;;;;12.32;11.02;;;24.50;94.00;;;;;;5032532;28;20100;-76
2021/06/26 07:22:06;;;;;;;5.68;5.18;;;24.60;94.70;;;;;;5033141;28;20049;-74
2021/06/26 07:24:33;;;;;;;9.85;7.72;;;24.70;95.70;;;;;;5032649;28;20049;-76
2021/06/26 07:29:40;;;;;;;6.55;5.70;;;25.40;93.70;;;;;;5032434;28;20754;-78
2021/06/26 07:32:08;;;;;;;6.65;4.47;;;26.20;91.50;;;;;;5032963;28;20456;-75
2021/06/26 07:34:35;;;;;;;6.25;4.35;;;26.90;88.00;;;;;;5031852;28;20053;-71
2021/06/26 07:37:01;;;;;;;7.05;3.92;;;27.30;84.50;;;;;;5032187;28;20140;-71
2021/06/26 07:39:29;;;;;;;5.07;4.57;;;27.70;79.20;;;;;;5032345;28;20041;-74
2021/06/26 07:41:56;;;;;;;4.03;3.63;;;27.80;78.20;;;;;;5031261;28;20394;-73
2021/06/26 07:44:24;;;;;;;6.22;5.63;;;28.00;76.90;;;;;;5032568;28;20041;-73
2021/06/26 07:46:51;;;;;;;3.47;3.17;;;28.30;73.60;;;;;;5027183;28;20046;-77
2021/06/26 07:49:18;;;;;;;4.00;3.28;;;28.80;69.90;;;;;;5016308;28;20050;-76
2021/06/26 07:51:44;;;;;;;4.00;3.63;;;28.80;66.90;;;;;;5031737;28;20057;-76
2021/06/26 07:54:11;;;;;;;7.10;3.90;;;28.50;69.20;;;;;;5031770;28;20041;-74
2021/06/26 07:56:42;;;;;;;5.38;4.18;;;29.30;68.80;;;;;;5032155;28;20103;-75
2021/06/26 07:59:08;;;;;;;;;;;29.70;67.10;;;;;;5033359;28;20041;-76
2021/06/26 08:01:40;;;;;;;4.47;4.07;;;29.80;64.70;;;;;;5033203;28;20450;-77
2021/06/26 08:04:07;;;;;;;5.03;3.88;;;30.30;63.70;;;;;;5032555;28;20104;-74
2021/06/26 08:06:35;;;;;;;5.20;4.60;;;30.80;58.80;;;;;;5033043;28;20041;-80
2021/06/26 08:09:01;;;;;;;6.13;5.32;;;30.40;58.00;;;;;;5032250;28;20456;-73
2021/06/26 08:11:28;;;;;;;6.65;5.60;;;30.50;58.20;;;;;;5026668;28;20045;-72
2021/06/26 08:13:57;;;;;;;4.72;4.32;;;30.70;56.60;;;;;;5031282;28;20551;-70
2021/06/26 08:16:24;;;;;;;9.13;8.18;;;29.60;57.20;;;;;;5031662;28;20176;-77
2021/06/26 08:18:50;;;;;;;6.00;5.40;;;29.60;57.10;;;;;;5032159;28;20099;-79
2021/06/26 08:21:19;;;;;;;7.13;5.20;;;30.20;57.90;;;;;;5029893;28;20103;-78
2021/06/26 08:23:46;;;;;;;4.63;4.22;;;30.90;57.50;;;;;;5033225;28;20065;-76
2021/06/26 08:26:13;;;;;;;4.55;3.88;;;31.60;55.40;;;;;;5031883;28;20049;-75
2021/06/26 08:28:39;;;;;;;5.78;4.50;;;32.40;55.20;;;;;;5031652;28;20053;-74
2021/06/26 08:31:07;;;;;;;4.70;4.25;;;32.50;52.10;;;;;;5031644;28;20050;-71
2021/06/26 08:33:34;;;;;;;6.18;3.85;;;31.80;52.70;;;;;;5032399;28;20041;-77
2021/06/26 08:36:01;;;;;;;4.60;4.05;;;31.60;54.40;;;;;;5032936;28;20467;-74
2021/06/26 08:38:27;;;;;;;5.30;3.90;;;31.70;52.90;;;;;;5031945;28;20075;-77
2021/06/26 08:40:56;;;;;;;7.22;5.70;;;31.50;50.60;;;;;;5031700;28;20092;-74
2021/06/26 08:43:24;;;;;;;6.65;5.00;;;31.70;52.00;;;;;;5023362;28;20049;-76
2021/06/26 08:45:51;;;;;;;4.22;3.83;;;32.10;51.70;;;;;;5032706;28;20045;-74
2021/06/26 08:48:19;;;;;;;4.60;4.20;;;31.60;50.60;;;;;;5032277;28;20099;-74
2021/06/26 08:50:47;;;;;;;4.28;3.88;;;31.60;50.50;;;;;;5022219;28;20050;-74
2021/06/26 08:53:13;;;;;;;4.03;3.63;;;31.40;51.30;;;;;;5034340;28;20100;-73
2021/06/26 08:55:41;;;;;;;5.28;4.78;;;31.40;51.80;;;;;;5036604;28;20088;-74
2021/06/26 08:58:07;;;;;;;6.60;6.00;;;31.30;52.60;;;;;;5036368;28;20057;-74
2021/06/26 09:00:34;;;;;;;4.07;3.67;;;31.00;51.30;;;;;;5036471;28;20478;-74
2021/06/26 09:03:09;;;;;;;4.38;4.05;;;29.80;52.60;;;;;;5036114;28;20046;-74
2021/06/26 09:05:38;;;;;;;10.85;8.55;;;29.00;54.80;;;;;;5035744;28;20390;-74
2021/06/26 09:08:09;;;;;;;6.10;5.32;;;28.50;56.50;;;;;;5035788;28;20053;-74
2021/06/26 09:10:36;;;;;;;4.82;4.43;;;27.80;59.00;;;;;;5026137;28;20049;-74
2021/06/26 09:13:12;;;;;;;4.65;4.25;;;27.70;59.10;;;;;;5017894;28;20049;-72
2021/06/26 09:15:38;;;;;;;4.97;4.45;;;29.00;57.80;;;;;;5016412;28;20056;-74
2021/06/26 09:18:12;;;;;;;7.93;4.85;;;29.90;54.90;;;;;;5016468;28;20061;-73
2021/06/26 09:20:43;;;;;;;8.52;7.32;;;31.20;53.00;;;;;;5016568;28;20263;-74
2021/06/26 09:23:21;;;;;;;3.90;3.60;;;32.50;49.10;;;;;;5016760;28;20058;-74
2021/06/26 09:25:49;;;;;;;4.60;4.22;;;32.60;48.60;;;;;;5016063;28;20042;-74
2021/06/26 09:28:24;;;;;;;6.50;4.53;;;32.10;48.00;;;;;;5016452;28;20104;-74
2021/06/26 09:30:52;;;;;;;3.80;3.50;;;31.30;50.50;;;;;;5016371;28;20521;-73
2021/06/26 09:33:21;;;;;;;4.25;3.85;;;30.80;50.20;;;;;;5016291;28;20105;-72
2021/06/26 09:36:01;;;;;;;6.05;5.50;;;30.30;51.80;;;;;;5016959;28;20065;-74
2021/06/26 09:38:30;;;;;;;5.10;4.65;;;29.50;51.20;;;;;;5015789;28;20104;-72
2021/06/26 09:40:57;;;;;;;4.07;3.67;;;28.30;52.40;;;;;;5015713;28;20096;-73
2021/06/26 09:43:28;;;;;;;8.57;6.88;;;27.50;54.00;;;;;;5015662;28;20096;-73
2021/06/26 09:46:08;;;;;;;6.25;4.55;;;27.10;56.70;;;;;;5018210;28;20088;-74
2021/06/26 09:48:35;;;;;;;4.97;4.57;;;28.30;55.20;;;;;;5035524;28;20045;-73
2021/06/26 09:51:03;;;;;;;3.50;3.20;;;29.90;51.80;;;;;;5031955;28;20051;-73
2021/06/26 09:53:29;;;;;;;4.05;3.75;;;30.70;50.80;;;;;;5015419;28;20050;-73
2021/06/26 09:55:56;;;;;;;3.83;3.53;;;31.20;48.90;;;;;;5015619;28;20056;-72
2021/06/26 09:58:23;;;;;;;4.97;3.97;;;31.30;48.30;;;;;;5015622;28;20041;-73
2021/06/26 10:00:49;;;;;;;4.40;3.78;;;31.60;48.20;;;;;;5019991;28;20045;-73
2021/06/26 10:03:19;;;;;;;4.07;3.60;;;31.90;48.70;;;;;;5034582;28;20049;-74
2021/06/26 10:05:47;;;;;;;4.63;3.35;;;32.20;45.80;;;;;;5033983;28;20053;-74
2021/06/26 10:08:16;;;;;;;4.05;3.75;;;31.20;47.50;;;;;;5034849;28;20045;-73
2021/06/26 10:10:43;;;;;;;4.63;4.03;;;30.50;47.30;;;;;;5034480;28;20052;-74
2021/06/26 10:13:12;;;;;;;3.92;3.45;;;30.20;48.30;;;;;;5014900;28;20054;-74
2021/06/26 10:15:39;;;;;;;3.80;3.40;;;31.30;49.50;;;;;;5016066;28;20048;-74
2021/06/26 10:18:06;;;;;;;4.47;4.07;;;32.80;45.60;;;;;;5014973;28;20050;-74
2021/06/26 10:20:37;;;;;;;5.25;4.05;;;33.50;43.80;;;;;;5014958;28;20100;-73
2021/06/26 10:23:04;;;;;;;4.10;3.67;;;33.10;42.80;;;;;;5014903;28;20082;-73
2021/06/26 10:25:34;;;;;;;4.82;4.43;;;32.20;44.00;;;;;;5014825;28;20050;-73
2021/06/26 10:28:08;;;;;;;4.30;3.90;;;32.30;45.30;;;;;;5015110;28;20049;-73
2021/06/26 10:30:36;;;;;;;5.88;5.25;;;33.50;44.70;;;;;;5014899;28;20045;-73
2021/06/26 10:33:05;;;;;;;5.25;4.10;;;34.40;44.20;;;;;;5014878;28;20081;-74
2021/06/26 10:35:33;;;;;;;4.03;3.38;;;33.30;45.00;;;;;;5015173;28;20050;-74
2021/06/26 10:38:02;;;;;;;5.50;5.10;;;32.00;46.20;;;;;;5014519;28;20098;-74
2021/06/26 10:40:42;;;;;;;4.10;3.70;;;31.00;48.10;;;;;;5015070;28;20106;-73
2021/06/26 10:43:24;;;;;;;7.47;6.72;;;30.70;49.00;;;;;;5028687;28;20064;-73
2021/06/26 10:45:52;;;;;;;5.78;5.28;;;31.40;48.60;;;;;;5032466;28;20056;-73
2021/06/26 10:48:22;;;;;;;4.65;4.30;;;33.10;46.30;;;;;;5033800;28;20057;-73
2021/06/26 10:50:52;;;;;;;4.75;4.32;;;34.40;43.50;;;;;;5033706;28;20133;-75
2021/06/26 10:53:30;;;;;;;5.32;4.85;;;34.50;42.20;;;;;;5033680;28;20076;-73
2021/06/26 10:56:04;;;;;;;6.38;5.75;;;35.00;41.40;;;;;;5031783;28;20516;-74
2021/06/26 10:58:33;;;;;;;10.52;4.68;;;34.90;41.20;;;;;;5032573;28;20058;-74
2021/06/26 11:01:10;;;;;;;5.25;4.75;;;34.40;43.00;;;;;;5034061;28;20099;-73
2021/06/26 11:03:37;;;;;;;4.13;3.83;;;33.30;42.90;;;;;;5033807;28;20057;-74
2021/06/26 11:06:14;;;;;;;3.80;3.40;;;31.60;44.50;;;;;;5033691;28;20142;-74
2021/06/26 11:08:41;;;;;;;7.28;5.20;;;30.80;45.10;;;;;;5033732;28;20079;-74
2021/06/26 11:11:09;;;;;;;4.30;3.90;;;30.50;45.90;;;;;;5032554;28;20045;-73
2021/06/26 11:13:36;;;;;;;4.05;3.75;;;29.80;51.90;;;;;;5033854;28;20053;-74
2021/06/26 11:16:06;;;;;;;4.45;4.15;;;29.80;51.60;;;;;;5033264;28;20046;-74
2021/06/26 11:18:32;;;;;;;5.50;4.35;;;29.50;48.10;;;;;;5033868;28;20049;-74
2021/06/26 11:21:00;;;;;;;5.65;5.10;;;30.10;47.20;;;;;;5033389;28;20497;-73
2021/06/26 11:23:28;;;;;;;8.50;7.28;;;30.70;47.30;;;;;;5033465;28;20440;-73
2021/06/26 11:26:00;;;;;;;5.20;4.75;;;31.90;46.70;;;;;;5032861;28;20490;-73
2021/06/26 11:28:28;;;;;;;3.72;3.42;;;33.40;44.90;;;;;;5033170;28;20111;-77
2021/06/26 11:31:00;;;;;;;4.28;3.88;;;33.30;42.90;;;;;;5033168;28;20045;-74
2021/06/26 11:33:31;;;;;;;13.55;12.20;;;33.60;43.50;;;;;;5033363;28;20045;-74
2021/06/26 11:35:58;;;;;;;8.55;7.72;;;34.40;42.90;;;;;;5033088;28;20045;-74
2021/06/26 11:38:25;;;;;;;5.28;4.32;;;34.20;41.50;;;;;;5031336;28;20111;-74
2021/06/26 11:41:02;;;;;;;4.07;3.67;;;33.50;41.90;;;;;;5033561;28;20045;-74
2021/06/26 11:43:30;;;;;;;4.75;3.83;;;32.30;44.60;;;;;;5033309;28;20045;-73
2021/06/26 11:45:57;;;;;;;4.80;4.38;;;31.10;44.80;;;;;;5032958;28;20426;-74
2021/06/26 11:48:23;;;;;;;6.32;5.22;;;30.40;45.80;;;;;;5036233;28;20045;-74
2021/06/26 11:50:52;;;;;;;5.75;4.65;;;30.00;47.40;;;;;;5033828;28;20072;-74
2021/06/26 11:53:22;;;;;;;5.32;4.50;;;29.70;46.90;;;;;;5029083;28;20042;-74
2021/06/26 11:55:55;;;;;;;5.22;4.63;;;29.40;47.10;;;;;;5013099;28;20045;-73
2021/06/26 11:58:23;;;;;;;5.47;4.18;;;29.10;47.80;;;;;;5013289;28;20061;-74
2021/06/26 12:01:00;;;;;;;4.15;3.70;;;28.80;48.90;;;;;;5013329;28;20104;-74
2021/06/26 12:03:29;;;;;;;4.38;3.97;;;28.90;49.40;;;;;;5013310;28;20092;-74
2021/06/26 12:06:00;;;;;;;7.93;7.10;;;30.30;52.00;;;;;;5012846;28;20053;-74
2021/06/26 12:08:26;;;;;;;4.43;3.90;;;31.60;47.10;;;;;;5014282;28;20097;-73
2021/06/26 12:10:53;;;;;;;8.88;7.97;;;32.50;44.80;;;;;;5032494;28;20072;-74
2021/06/26 12:13:20;;;;;;;4.95;4.55;;;33.30;43.70;;;;;;5033106;28;20490;-74
2021/06/26 12:15:47;;;;;;;4.90;4.47;;;33.40;41.40;;;;;;5033096;28;20136;-73
2021/06/26 12:18:15;;;;;;;4.20;3.83;;;32.60;40.50;;;;;;5013349;28;20469;-73
2021/06/26 12:20:41;;;;;;;11.15;9.70;;;31.50;42.70;;;;;;5013041;28;20096;-74
2021/06/26 12:23:10;;;;;;;5.70;3.50;;;30.60;45.10;;;;;;5032084;28;20045;-74
2021/06/26 12:25:39;;;;;;;8.65;7.93;;;30.00;48.00;;;;;;5032687;28;20042;-74
2021/06/26 12:28:08;;;;;;;8.13;5.72;;;29.80;47.90;;;;;;5034813;28;20052;-73
2021/06/26 12:30:36;;;;;;;5.60;5.20;;;29.40;49.10;;;;;;5036771;28;20045;-75
2021/06/26 12:33:03;;;;;;;4.07;3.78;;;28.90;49.40;;;;;;5036087;28;20144;-73
2021/06/26 12:35:32;;;;;;;4.88;4.38;;;28.60;46.40;;;;;;5035490;28;20099;-73
2021/06/26 12:37:59;;;;;;;14.38;12.95;;;28.20;47.60;;;;;;5016793;28;20092;-73
2021/06/26 12:40:27;;;;;;;6.13;5.53;;;28.40;48.60;;;;;;5016369;28;20141;-74
2021/06/26 12:42:57;;;;;;;6.13;5.20;;;29.70;47.00;;;;;;5016278;28;20046;-73
2021/06/26 12:45:30;;;;;;;5.45;4.45;;;31.10;45.40;;;;;;5016396;28;20132;-73
2021/06/26 12:48:03;;;;;;;9.30;8.43;;;32.10;42.40;;;;;;5016536;28;20054;-73